Map

Track Data

SID SEASON NUMBER BASIN SUBBASIN NAME ISO_TIME NATURE LAT LON WMO_WIND WMO_PRES WMO_AGENCY TRACK_TYPE DIST2LAND LANDFALL IFLAG USA_AGENCY USA_ATCF_ID USA_LAT USA_LON USA_RECORD USA_STATUS USA_WIND USA_PRES USA_SSHS USA_R34_NE USA_R34_SE USA_R34_SW USA_R34_NW USA_R50_NE USA_R50_SE USA_R50_SW USA_R50_NW USA_R64_NE USA_R64_SE USA_R64_SW USA_R64_NW USA_POCI USA_ROCI USA_RMW USA_EYE TOKYO_LAT TOKYO_LON TOKYO_GRADE TOKYO_WIND TOKYO_PRES TOKYO_R50_DIR TOKYO_R50_LONG TOKYO_R50_SHORT TOKYO_R30_DIR TOKYO_R30_LONG TOKYO_R30_SHORT TOKYO_LAND CMA_LAT CMA_LON CMA_CAT CMA_WIND CMA_PRES HKO_LAT HKO_LON HKO_CAT HKO_WIND HKO_PRES NEWDELHI_LAT NEWDELHI_LON NEWDELHI_GRADE NEWDELHI_WIND NEWDELHI_PRES NEWDELHI_CI NEWDELHI_DP NEWDELHI_POCI REUNION_LAT REUNION_LON REUNION_TYPE REUNION_WIND REUNION_PRES REUNION_TNUM REUNION_CI REUNION_RMW REUNION_R34_NE REUNION_R34_SE REUNION_R34_SW REUNION_R34_NW REUNION_R50_NE REUNION_R50_SE REUNION_R50_SW REUNION_R50_NW REUNION_R64_NE REUNION_R64_SE REUNION_R64_SW REUNION_R64_NW BOM_LAT BOM_LON BOM_TYPE BOM_WIND BOM_PRES BOM_TNUM BOM_CI BOM_RMW BOM_R34_NE BOM_R34_SE BOM_R34_SW BOM_R34_NW BOM_R50_NE BOM_R50_SE BOM_R50_SW BOM_R50_NW BOM_R64_NE BOM_R64_SE BOM_R64_SW BOM_R64_NW BOM_ROCI BOM_POCI BOM_EYE BOM_POS_METHOD BOM_PRES_METHOD NADI_LAT NADI_LON NADI_CAT NADI_WIND NADI_PRES WELLINGTON_LAT WELLINGTON_LON WELLINGTON_WIND WELLINGTON_PRES DS824_LAT DS824_LON DS824_STAGE DS824_WIND DS824_PRES TD9636_LAT TD9636_LON TD9636_STAGE TD9636_WIND TD9636_PRES TD9635_LAT TD9635_LON TD9635_WIND TD9635_PRES TD9635_ROCI NEUMANN_LAT NEUMANN_LON NEUMANN_CLASS NEUMANN_WIND NEUMANN_PRES MLC_LAT MLC_LON MLC_CLASS MLC_WIND MLC_PRES USA_GUST BOM_GUST BOM_GUST_PER REUNION_GUST REUNION_GUST_PER USA_SEAHGT USA_SEARAD_NE USA_SEARAD_SE USA_SEARAD_SW USA_SEARAD_NW STORM_SPEED STORM_DIR
1942041S17127 1942 7 SI WA NOT_NAMED 1942-02-09 23:00:00 NR -17.0000 126.900 main 0 0 __________O___ -1 -17.0000 126.900 7 10 267
1942041S17127 1942 7 SI WA NOT_NAMED 1942-02-10 00:00:00 NR -17.0071 126.733 main 0 0 __________P___ -1 -17.0071 126.733 7 5 250
1942041S17127 1942 7 SI WA NOT_NAMED 1942-02-10 01:00:00 NR -17.0605 126.725 999 bom main 0 0 ______O___P___ -1 -17.2000 127.200 999 -17.0141 126.567 7 7 254
1942041S17127 1942 7 SI WA NOT_NAMED 1942-02-10 03:00:00 NR -17.0981 126.400 main 0 0 ______P___P___ -1 -17.2378 126.732 -17.0282 126.233 7 10 263
1942041S17127 1942 7 SI WA NOT_NAMED 1942-02-10 06:00:00 NR -17.1547 125.864 main 0 0 ______P___P___ -1 -17.2926 126.037 -17.0513 125.733 7 11 264
1942041S17127 1942 7 SI WA NOT_NAMED 1942-02-10 09:00:00 NR -17.2117 125.298 main 0 0 ______P___P___ -1 -17.3449 125.362 -17.0785 125.233 7 11 265
1942041S17127 1942 7 SI WA NOT_NAMED 1942-02-10 11:00:00 NR -17.2393 124.914 main 0 0 ______P___O___ -1 -17.3786 124.929 -17.1000 124.900 7 11 266
1942041S17127 1942 7 SI WA NOT_NAMED 1942-02-10 12:00:00 NR -17.2536 124.726 main 0 0 ______P___P___ -1 -17.3952 124.719 -17.1120 124.733 7 11 265
1942041S17127 1942 7 SI WA NOT_NAMED 1942-02-10 15:00:00 NR -17.2985 124.180 main 0 0 ______P___P___ -1 -17.4437 124.120 -17.1533 124.241 7 10 265
1942041S17127 1942 7 SI WA NOT_NAMED 1942-02-10 18:00:00 NR -17.3466 123.675 main 0 0 ______P___P___ -1 -17.4910 123.578 -17.2022 123.773 7 9 264
1942041S17127 1942 7 SI WA NOT_NAMED 1942-02-10 21:00:00 NR -17.3980 123.226 main 0 0 ______P___P___ -1 -17.5376 123.104 -17.2584 123.349 7 8 263
1942041S17127 1942 7 SI WA NOT_NAMED 1942-02-10 23:00:00 NR -17.4343 122.966 main 0 0 ______P___O___ -1 -17.5687 122.832 -17.3000 123.100 7 7 259
1942041S17127 1942 7 SI WA NOT_NAMED 1942-02-11 00:00:00 TS -17.4687 122.845 main 0 0 ______P__OP___ -1 -17.5843 122.711 -17.6000 122.800 TC 40 995 -17.3202 122.990 7 7 254
1942041S17127 1942 7 SI WA NOT_NAMED 1942-02-11 01:00:00 TS -17.4998 122.734 995 bom main 0 0 ______O__PP___ -1 -17.6000 122.600 995 -17.6167 122.697 TC 40 995 -17.3412 122.888 7 6 255
1942041S17127 1942 7 SI WA NOT_NAMED 1942-02-11 03:00:00 TS -17.5474 122.539 main 0 0 ______P__PP___ -1 -17.6318 122.408 995 -17.6500 122.493 TC 40 995 -17.3860 122.703 7 5 255
1942041S17127 1942 7 SI WA NOT_NAMED 1942-02-11 06:00:00 TS -17.6140 122.278 main 0 0 ______P__OP___ -1 -17.6822 122.172 995 -17.7000 122.200 TC 40 995 -17.4598 122.464 7 5 255
1942041S17127 1942 7 SI WA NOT_NAMED 1942-02-11 07:00:00 TS -17.6343 122.199 995 bom main 0 0 ______O__PP___ -1 -17.7000 122.100 995 -17.7168 122.107 TC -17.4861 122.390 7 5 255
1942041S17127 1942 7 SI WA NOT_NAMED 1942-02-11 09:00:00 TS -17.6752 122.038 main 15 15 ______P__PP___ -1 -17.7332 121.937 -17.7510 121.931 TC -17.5414 122.246 7 5 254
1942041S17127 1942 7 SI WA NOT_NAMED 1942-02-11 11:00:00 TS -17.7179 121.882 main 23 23 ______P__PO___ -1 -17.7670 121.778 -17.7866 121.767 TC -17.6000 122.100 7 5 255
1942041S17127 1942 7 SI WA NOT_NAMED 1942-02-11 12:00:00 TS -17.7345 121.799 main 33 33 ______P__PP___ -1 -17.7845 121.700 -17.8051 121.689 TC -17.6140 122.007 7 5 257
1942041S17127 1942 7 SI WA NOT_NAMED 1942-02-11 15:00:00 TS -17.7867 121.558 main 57 57 ______P__PP___ -1 -17.8405 121.477 -17.8646 121.475 TC -17.6550 121.723 7 5 255
1942041S17127 1942 7 SI WA NOT_NAMED 1942-02-11 18:00:00 TS -17.8532 121.338 main 84 84 ______P__PP___ -1 -17.9042 121.273 -17.9320 121.288 TC -17.7234 121.453 7 4 248
1942041S17127 1942 7 SI WA NOT_NAMED 1942-02-11 21:00:00 TS -17.9483 121.148 main 99 92 ______P__PP___ -1 -17.9787 121.093 -18.0097 121.130 TC -17.8566 121.221 7 4 237
1942041S17127 1942 7 SI WA NOT_NAMED 1942-02-11 23:00:00 TS -18.0347 121.043 main 99 92 ______P__PO___ -1 -18.0358 120.989 -18.0684 121.040 TC -18.0000 121.100 7 4 225
1942041S17127 1942 7 SI WA NOT_NAMED 1942-02-12 00:00:00 TS -18.0875 120.997 main 92 92 ______P__OP___ -1 -18.0670 120.943 -18.1000 121.000 TC 45 990 -18.0955 121.048 7 4 220
1942041S17127 1942 7 SI WA NOT_NAMED 1942-02-12 01:00:00 TS -18.1435 120.953 990 bom main 92 90 ______O__PP___ -1 -18.1000 120.900 990 -18.1267 120.956 TC -18.2037 121.003 7 4 212
1942041S17127 1942 7 SI WA NOT_NAMED 1942-02-12 03:00:00 TS -18.2657 120.876 main 90 90 ______P__PP___ -1 -18.1618 120.819 -18.1826 120.877 TC -18.4529 120.933 7 4 205
1942041S17127 1942 7 SI WA NOT_NAMED 1942-02-12 06:00:00 TS -18.4763 120.794 main 95 84 ______P__PP___ -1 -18.2648 120.725 -18.2746 120.782 TC -18.8895 120.875 7 5 195
1942041S17127 1942 7 SI WA NOT_NAMED 1942-02-12 09:00:00 TS -18.7106 120.749 main 92 76 ______P__PP___ -1 -18.3817 120.660 -18.3792 120.714 TC -19.3711 120.873 7 5 189
1942041S17127 1942 7 SI WA NOT_NAMED 1942-02-12 11:00:00 TS -18.8752 120.738 main 76 76 ______P__PO___ -1 -18.4680 120.632 -18.4575 120.683 TC -19.7000 120.900 7 5 0
1942041S17127 1942 7 SI WA NOT_NAMED 1942-02-12 12:00:00 TS -18.9589 120.738 main 68 45 ______P__PP___ -1 -18.5138 120.622 -18.4996 120.671 TC -19.8633 120.922 7 5 0
1942041S17127 1942 7 SI WA NOT_NAMED 1942-02-12 15:00:00 TS -19.2158 120.758 main 45 24 ______P__PP___ -1 -18.6628 120.608 -18.6387 120.650 TC -20.3458 121.016 7 4 174
1942041S17127 1942 7 SI WA NOT_NAMED 1942-02-12 18:00:00 TS -19.3618 120.772 main 24 15 ______P__PP___ -1 -18.8301 120.615 -18.7998 120.649 TC -20.8200 121.145 7 2 176
1942041S17127 1942 7 SI WA NOT_NAMED 1942-02-12 21:00:00 TS -19.4590 120.782 main 15 15 ______P__PP___ -1 -19.0172 120.641 -18.9858 120.667 TC -21.2889 121.294 7 1 204
1942041S17127 1942 7 SI WA NOT_NAMED 1942-02-12 23:00:00 TS -19.4129 120.758 main 24 24 ______P__PO___ -1 -19.1537 120.667 -19.1253 120.687 TC -21.6000 121.400 7 5 340
1942041S17127 1942 7 SI WA NOT_NAMED 1942-02-13 00:00:00 TS -19.2128 120.691 main 49 39 ______P__O____ -1 -19.2256 120.683 -19.2000 120.700 TC 60 980 7 4 335
1942041S17127 1942 7 SI WA NOT_NAMED 1942-02-13 01:00:00 TS -19.2884 120.706 980 bom main 39 30 ______O__P____ -1 -19.3000 120.700 980 4 -19.2768 120.711 TC 60 980 7 5 170
1942041S17127 1942 7 SI WA NOT_NAMED 1942-02-13 03:00:00 TS -19.4464 120.738 main 30 0 ______P__P____ -1 -19.4531 120.735 980 -19.4397 120.741 TC 60 980 7 5 168
1942041S17127 1942 7 SI WA NOT_NAMED 1942-02-13 06:00:00 TS -19.7000 120.800 980 bom main 0 0 ______O__O____ -1 -19.7000 120.800 980 -19.7000 120.800 TC 60 980 7 5 166
1942041S17127 1942 7 SI WA NOT_NAMED 1942-02-13 09:00:00 TS -19.9661 120.870 main 0 0 ______P__P____ -1 -19.9616 120.872 -19.9705 120.869 TC 7 6 166
1942041S17127 1942 7 SI WA NOT_NAMED 1942-02-13 12:00:00 TS -20.2415 120.946 main 0 0 ______P__P____ -1 -20.2349 120.947 -20.2481 120.946 TC 6 165
1942041S17127 1942 7 SI WA NOT_NAMED 1942-02-13 15:00:00 TS -20.5244 121.027 main 0 0 ______P__P____ -1 -20.5176 121.025 -20.5312 121.028 TC 6 165
1942041S17127 1942 7 SI WA NOT_NAMED 1942-02-13 18:00:00 TS -20.8123 121.110 main 0 0 ______P__P____ -1 -20.8075 121.106 -20.8185 121.116 TC 6 165
1942041S17127 1942 7 SI WA NOT_NAMED 1942-02-13 21:00:00 TS -21.1050 121.196 main 0 0 ______P__P____ -1 -21.1026 121.188 -21.1086 121.207 TC 6 165
1942041S17127 1942 7 SI WA NOT_NAMED 1942-02-14 00:00:00 TS -21.4003 121.281 main 0 0 ______P__O____ -1 -21.4005 121.272 -21.4000 121.300 TC 45 990 6 166
1942041S17127 1942 7 SI WA NOT_NAMED 1942-02-14 01:00:00 NR -21.5000 121.300 990 bom main 0 ______O_______ -1 -21.5000 121.300 990 TC 6 0

About IBTrACS Database

This database is a web-friendly format of International Best Track Archive for Climate Stewardship (IBTrACS), a global best track data archive curated by NOAA dating back to 1842.

Updated: 2021-10-08